sensor_id;sensor_type;location;lat;lon;timestamp;P1;durP1;ratioP1;P2;durP2;ratioP2
23155;SDS011;11746;50.876;4.246;2023-08-01T00:02:10;3.08;;;1.60;;
23155;SDS011;11746;50.876;4.246;2023-08-01T00:04:37;3.13;;;1.50;;
23155;SDS011;11746;50.876;4.246;2023-08-01T00:07:02;4.22;;;1.80;;
23155;SDS011;11746;50.876;4.246;2023-08-01T00:09:28;2.85;;;1.50;;
23155;SDS011;11746;50.876;4.246;2023-08-01T00:11:54;4.53;;;1.88;;
23155;SDS011;11746;50.876;4.246;2023-08-01T00:14:20;3.67;;;1.50;;
23155;SDS011;11746;50.876;4.246;2023-08-01T00:16:49;4.28;;;1.60;;
23155;SDS011;11746;50.876;4.246;2023-08-01T00:19:16;5.82;;;1.80;;
23155;SDS011;11746;50.876;4.246;2023-08-01T00:21:42;3.47;;;1.70;;
23155;SDS011;11746;50.876;4.246;2023-08-01T00:24:08;4.00;;;1.98;;
23155;SDS011;11746;50.876;4.246;2023-08-01T00:26:34;3.50;;;1.70;;
23155;SDS011;11746;50.876;4.246;2023-08-01T00:29:00;5.63;;;1.75;;
23155;SDS011;11746;50.876;4.246;2023-08-01T00:31:26;3.05;;;1.95;;
23155;SDS011;11746;50.876;4.246;2023-08-01T00:33:52;4.18;;;1.90;;
23155;SDS011;11746;50.876;4.246;2023-08-01T00:36:18;3.05;;;2.10;;
23155;SDS011;11746;50.876;4.246;2023-08-01T00:38:44;4.38;;;2.33;;
23155;SDS011;11746;50.876;4.246;2023-08-01T00:41:10;3.05;;;2.00;;
23155;SDS011;11746;50.876;4.246;2023-08-01T00:43:36;2.83;;;2.13;;
23155;SDS011;11746;50.876;4.246;2023-08-01T00:46:03;7.82;;;2.30;;
23155;SDS011;11746;50.876;4.246;2023-08-01T00:48:30;6.93;;;2.20;;
23155;SDS011;11746;50.876;4.246;2023-08-01T00:50:57;6.80;;;2.00;;
23155;SDS011;11746;50.876;4.246;2023-08-01T00:53:29;5.15;;;2.15;;
23155;SDS011;11746;50.876;4.246;2023-08-01T00:55:56;5.53;;;2.40;;
23155;SDS011;11746;50.876;4.246;2023-08-01T00:58:23;4.15;;;2.33;;
23155;SDS011;11746;50.876;4.246;2023-08-01T01:00:49;5.30;;;2.17;;
23155;SDS011;11746;50.876;4.246;2023-08-01T01:03:15;5.88;;;2.38;;
23155;SDS011;11746;50.876;4.246;2023-08-01T01:05:56;4.43;;;2.22;;
23155;SDS011;11746;50.876;4.246;2023-08-01T01:08:37;5.22;;;2.80;;
23155;SDS011;11746;50.876;4.246;2023-08-01T01:11:03;4.82;;;2.83;;
23155;SDS011;11746;50.876;4.246;2023-08-01T01:13:29;5.63;;;2.88;;
23155;SDS011;11746;50.876;4.246;2023-08-01T01:15:55;4.22;;;2.60;;
23155;SDS011;11746;50.876;4.246;2023-08-01T01:18:21;9.90;;;3.15;;
23155;SDS011;11746;50.876;4.246;2023-08-01T01:20:47;5.38;;;2.92;;
23155;SDS011;11746;50.876;4.246;2023-08-01T01:23:13;6.50;;;3.20;;
23155;SDS011;11746;50.876;4.246;2023-08-01T01:25:39;6.20;;;2.88;;
23155;SDS011;11746;50.876;4.246;2023-08-01T01:28:06;7.00;;;3.25;;
23155;SDS011;11746;50.876;4.246;2023-08-01T01:30:33;6.55;;;3.03;;
23155;SDS011;11746;50.876;4.246;2023-08-01T01:33:03;5.80;;;3.17;;
23155;SDS011;11746;50.876;4.246;2023-08-01T01:35:30;8.35;;;3.78;;
23155;SDS011;11746;50.876;4.246;2023-08-01T01:37:59;6.82;;;3.67;;
23155;SDS011;11746;50.876;4.246;2023-08-01T01:40:29;7.68;;;3.35;;
23155;SDS011;11746;50.876;4.246;2023-08-01T01:42:56;5.78;;;3.10;;
23155;SDS011;11746;50.876;4.246;2023-08-01T01:45:22;9.57;;;3.85;;
23155;SDS011;11746;50.876;4.246;2023-08-01T01:47:48;10.07;;;3.92;;
23155;SDS011;11746;50.876;4.246;2023-08-01T01:50:14;7.82;;;4.32;;
23155;SDS011;11746;50.876;4.246;2023-08-01T01:52:39;7.85;;;3.92;;
23155;SDS011;11746;50.876;4.246;2023-08-01T01:55:05;9.70;;;4.28;;
23155;SDS011;11746;50.876;4.246;2023-08-01T01:57:32;7.20;;;3.88;;
23155;SDS011;11746;50.876;4.246;2023-08-01T01:59:58;10.13;;;4.50;;
23155;SDS011;11746;50.876;4.246;2023-08-01T02:02:24;8.70;;;4.05;;
23155;SDS011;11746;50.876;4.246;2023-08-01T02:04:50;11.85;;;4.55;;
23155;SDS011;11746;50.876;4.246;2023-08-01T02:07:16;9.40;;;4.57;;
23155;SDS011;11746;50.876;4.246;2023-08-01T02:09:42;8.02;;;4.07;;
23155;SDS011;11746;50.876;4.246;2023-08-01T02:12:08;11.00;;;4.25;;
23155;SDS011;11746;50.876;4.246;2023-08-01T02:14:35;9.35;;;4.65;;
23155;SDS011;11746;50.876;4.246;2023-08-01T02:17:01;10.75;;;4.07;;
23155;SDS011;11746;50.876;4.246;2023-08-01T02:19:27;10.93;;;5.30;;
23155;SDS011;11746;50.876;4.246;2023-08-01T02:21:53;10.88;;;4.60;;
23155;SDS011;11746;50.876;4.246;2023-08-01T02:24:19;7.88;;;4.88;;
23155;SDS011;11746;50.876;4.246;2023-08-01T02:26:45;13.80;;;4.60;;
23155;SDS011;11746;50.876;4.246;2023-08-01T02:29:11;10.48;;;4.78;;
23155;SDS011;11746;50.876;4.246;2023-08-01T02:31:37;10.68;;;5.38;;
23155;SDS011;11746;50.876;4.246;2023-08-01T02:34:03;10.63;;;5.10;;
23155;SDS011;11746;50.876;4.246;2023-08-01T02:36:29;9.55;;;5.57;;
23155;SDS011;11746;50.876;4.246;2023-08-01T02:38:55;11.13;;;5.35;;
23155;SDS011;11746;50.876;4.246;2023-08-01T02:41:20;10.32;;;5.25;;
23155;SDS011;11746;50.876;4.246;2023-08-01T02:43:46;10.57;;;5.05;;
23155;SDS011;11746;50.876;4.246;2023-08-01T02:46:12;11.93;;;5.70;;
23155;SDS011;11746;50.876;4.246;2023-08-01T02:48:38;9.75;;;4.85;;
23155;SDS011;11746;50.876;4.246;2023-08-01T02:51:04;13.80;;;5.53;;
23155;SDS011;11746;50.876;4.246;2023-08-01T02:53:30;11.10;;;5.53;;
23155;SDS011;11746;50.876;4.246;2023-08-01T02:55:56;11.18;;;5.53;;
23155;SDS011;11746;50.876;4.246;2023-08-01T02:58:22;9.55;;;5.20;;
23155;SDS011;11746;50.876;4.246;2023-08-01T03:00:48;11.63;;;5.28;;
23155;SDS011;11746;50.876;4.246;2023-08-01T03:03:14;10.77;;;5.10;;
23155;SDS011;11746;50.876;4.246;2023-08-01T03:05:40;10.88;;;5.60;;
23155;SDS011;11746;50.876;4.246;2023-08-01T03:08:06;13.20;;;5.68;;
23155;SDS011;11746;50.876;4.246;2023-08-01T03:10:32;12.63;;;5.38;;
23155;SDS011;11746;50.876;4.246;2023-08-01T03:12:58;14.25;;;5.78;;
23155;SDS011;11746;50.876;4.246;2023-08-01T03:15:24;10.98;;;5.65;;
23155;SDS011;11746;50.876;4.246;2023-08-01T03:17:50;12.23;;;5.53;;
23155;SDS011;11746;50.876;4.246;2023-08-01T03:20:15;11.38;;;5.72;;
23155;SDS011;11746;50.876;4.246;2023-08-01T03:22:41;14.82;;;6.18;;
23155;SDS011;11746;50.876;4.246;2023-08-01T03:25:07;12.48;;;5.78;;
23155;SDS011;11746;50.876;4.246;2023-08-01T03:27:34;15.73;;;5.90;;
23155;SDS011;11746;50.876;4.246;2023-08-01T03:30:02;11.13;;;5.30;;
23155;SDS011;11746;50.876;4.246;2023-08-01T03:32:34;12.55;;;5.60;;
23155;SDS011;11746;50.876;4.246;2023-08-01T03:35:03;16.65;;;6.10;;
23155;SDS011;11746;50.876;4.246;2023-08-01T03:37:29;17.98;;;5.78;;
23155;SDS011;11746;50.876;4.246;2023-08-01T03:39:55;12.60;;;5.28;;
23155;SDS011;11746;50.876;4.246;2023-08-01T03:42:21;9.35;;;5.30;;
23155;SDS011;11746;50.876;4.246;2023-08-01T03:44:47;17.63;;;5.72;;
23155;SDS011;11746;50.876;4.246;2023-08-01T03:47:15;12.43;;;5.38;;
23155;SDS011;11746;50.876;4.246;2023-08-01T03:49:41;10.93;;;4.78;;
23155;SDS011;11746;50.876;4.246;2023-08-01T03:52:07;13.88;;;5.68;;
23155;SDS011;11746;50.876;4.246;2023-08-01T03:54:33;14.95;;;5.88;;
23155;SDS011;11746;50.876;4.246;2023-08-01T03:57:00;12.65;;;5.55;;
23155;SDS011;11746;50.876;4.246;2023-08-01T03:59:27;14.82;;;5.25;;
23155;SDS011;11746;50.876;4.246;2023-08-01T04:01:53;11.65;;;5.22;;
23155;SDS011;11746;50.876;4.246;2023-08-01T04:04:19;13.15;;;5.80;;
23155;SDS011;11746;50.876;4.246;2023-08-01T04:06:45;12.75;;;6.07;;
23155;SDS011;11746;50.876;4.246;2023-08-01T04:09:11;11.40;;;5.93;;
23155;SDS011;11746;50.876;4.246;2023-08-01T04:11:37;12.45;;;6.13;;
23155;SDS011;11746;50.876;4.246;2023-08-01T04:14:03;13.73;;;5.82;;
23155;SDS011;11746;50.876;4.246;2023-08-01T04:16:28;12.07;;;6.07;;
23155;SDS011;11746;50.876;4.246;2023-08-01T04:18:54;14.35;;;6.40;;
23155;SDS011;11746;50.876;4.246;2023-08-01T04:21:30;11.95;;;5.78;;
23155;SDS011;11746;50.876;4.246;2023-08-01T04:23:57;17.65;;;6.93;;
23155;SDS011;11746;50.876;4.246;2023-08-01T04:26:23;12.38;;;5.90;;
23155;SDS011;11746;50.876;4.246;2023-08-01T04:28:49;16.98;;;5.53;;
23155;SDS011;11746;50.876;4.246;2023-08-01T04:31:15;14.45;;;5.88;;
23155;SDS011;11746;50.876;4.246;2023-08-01T04:33:41;14.88;;;6.47;;
23155;SDS011;11746;50.876;4.246;2023-08-01T04:36:07;14.80;;;6.22;;
23155;SDS011;11746;50.876;4.246;2023-08-01T04:38:32;11.90;;;6.03;;
23155;SDS011;11746;50.876;4.246;2023-08-01T04:40:58;16.05;;;6.30;;
23155;SDS011;11746;50.876;4.246;2023-08-01T04:43:25;13.18;;;6.38;;
23155;SDS011;11746;50.876;4.246;2023-08-01T04:45:51;12.80;;;6.10;;
23155;SDS011;11746;50.876;4.246;2023-08-01T04:48:17;14.02;;;6.15;;
23155;SDS011;11746;50.876;4.246;2023-08-01T04:50:42;16.67;;;6.40;;
23155;SDS011;11746;50.876;4.246;2023-08-01T04:53:09;14.57;;;6.80;;
23155;SDS011;11746;50.876;4.246;2023-08-01T04:55:36;12.27;;;6.03;;
23155;SDS011;11746;50.876;4.246;2023-08-01T04:58:02;11.88;;;5.80;;
23155;SDS011;11746;50.876;4.246;2023-08-01T05:00:28;15.35;;;6.05;;
23155;SDS011;11746;50.876;4.246;2023-08-01T05:02:53;18.75;;;6.10;;
23155;SDS011;11746;50.876;4.246;2023-08-01T05:05:19;12.10;;;5.63;;
23155;SDS011;11746;50.876;4.246;2023-08-01T05:07:45;13.32;;;6.40;;
23155;SDS011;11746;50.876;4.246;2023-08-01T05:10:11;12.30;;;5.63;;
23155;SDS011;11746;50.876;4.246;2023-08-01T05:12:37;13.02;;;6.00;;
23155;SDS011;11746;50.876;4.246;2023-08-01T05:15:03;11.55;;;5.63;;
23155;SDS011;11746;50.876;4.246;2023-08-01T05:17:29;14.35;;;6.20;;
23155;SDS011;11746;50.876;4.246;2023-08-01T05:19:55;13.32;;;5.63;;
23155;SDS011;11746;50.876;4.246;2023-08-01T05:22:21;15.38;;;5.70;;
23155;SDS011;11746;50.876;4.246;2023-08-01T05:24:47;10.07;;;4.78;;
23155;SDS011;11746;50.876;4.246;2023-08-01T05:27:13;15.68;;;5.47;;
23155;SDS011;11746;50.876;4.246;2023-08-01T05:29:39;12.27;;;5.25;;
23155;SDS011;11746;50.876;4.246;2023-08-01T05:32:05;12.27;;;5.20;;
23155;SDS011;11746;50.876;4.246;2023-08-01T05:34:31;8.68;;;5.35;;
23155;SDS011;11746;50.876;4.246;2023-08-01T05:36:57;11.80;;;5.10;;
23155;SDS011;11746;50.876;4.246;2023-08-01T05:39:22;12.63;;;5.30;;
23155;SDS011;11746;50.876;4.246;2023-08-01T05:41:48;15.50;;;6.22;;
23155;SDS011;11746;50.876;4.246;2023-08-01T05:44:15;11.32;;;5.25;;
23155;SDS011;11746;50.876;4.246;2023-08-01T05:46:41;16.23;;;5.35;;
23155;SDS011;11746;50.876;4.246;2023-08-01T05:49:07;18.55;;;5.65;;
23155;SDS011;11746;50.876;4.246;2023-08-01T05:51:33;14.02;;;5.43;;
23155;SDS011;11746;50.876;4.246;2023-08-01T05:53:59;13.82;;;5.57;;
23155;SDS011;11746;50.876;4.246;2023-08-01T05:56:25;13.93;;;5.88;;
23155;SDS011;11746;50.876;4.246;2023-08-01T05:58:51;15.63;;;5.80;;
23155;SDS011;11746;50.876;4.246;2023-08-01T06:01:16;11.10;;;5.30;;
23155;SDS011;11746;50.876;4.246;2023-08-01T06:03:42;13.73;;;4.95;;
23155;SDS011;11746;50.876;4.246;2023-08-01T06:06:08;10.68;;;4.95;;
23155;SDS011;11746;50.876;4.246;2023-08-01T06:08:34;14.77;;;4.80;;
23155;SDS011;11746;50.876;4.246;2023-08-01T06:11:00;11.00;;;4.75;;
23155;SDS011;11746;50.876;4.246;2023-08-01T06:13:26;14.55;;;5.40;;
23155;SDS011;11746;50.876;4.246;2023-08-01T06:15:52;12.23;;;5.10;;
23155;SDS011;11746;50.876;4.246;2023-08-01T06:18:18;13.35;;;5.05;;
23155;SDS011;11746;50.876;4.246;2023-08-01T06:20:43;11.43;;;5.10;;
23155;SDS011;11746;50.876;4.246;2023-08-01T06:23:09;14.93;;;5.20;;
23155;SDS011;11746;50.876;4.246;2023-08-01T06:25:35;12.50;;;4.32;;
23155;SDS011;11746;50.876;4.246;2023-08-01T06:28:01;10.15;;;4.55;;
23155;SDS011;11746;50.876;4.246;2023-08-01T06:30:27;14.00;;;5.50;;
23155;SDS011;11746;50.876;4.246;2023-08-01T06:32:53;9.07;;;4.47;;
23155;SDS011;11746;50.876;4.246;2023-08-01T06:35:19;13.55;;;4.95;;
23155;SDS011;11746;50.876;4.246;2023-08-01T06:37:46;11.40;;;4.82;;
23155;SDS011;11746;50.876;4.246;2023-08-01T06:40:12;9.95;;;4.32;;
23155;SDS011;11746;50.876;4.246;2023-08-01T06:42:38;13.85;;;5.05;;
23155;SDS011;11746;50.876;4.246;2023-08-01T06:45:04;12.00;;;4.90;;
23155;SDS011;11746;50.876;4.246;2023-08-01T06:47:31;14.18;;;5.40;;
23155;SDS011;11746;50.876;4.246;2023-08-01T06:49:57;13.63;;;5.20;;
23155;SDS011;11746;50.876;4.246;2023-08-01T06:52:22;10.25;;;4.40;;
23155;SDS011;11746;50.876;4.246;2023-08-01T06:54:48;13.05;;;5.68;;
23155;SDS011;11746;50.876;4.246;2023-08-01T06:57:14;8.65;;;4.45;;
23155;SDS011;11746;50.876;4.246;2023-08-01T06:59:40;12.23;;;5.32;;
23155;SDS011;11746;50.876;4.246;2023-08-01T07:02:06;12.98;;;5.35;;
23155;SDS011;11746;50.876;4.246;2023-08-01T07:04:33;16.88;;;5.07;;
23155;SDS011;11746;50.876;4.246;2023-08-01T07:06:59;10.88;;;4.82;;
23155;SDS011;11746;50.876;4.246;2023-08-01T07:09:25;13.85;;;4.97;;
23155;SDS011;11746;50.876;4.246;2023-08-01T07:11:51;14.57;;;4.88;;
23155;SDS011;11746;50.876;4.246;2023-08-01T07:14:17;9.82;;;4.63;;
23155;SDS011;11746;50.876;4.246;2023-08-01T07:16:43;10.35;;;4.30;;
23155;SDS011;11746;50.876;4.246;2023-08-01T07:19:09;9.68;;;4.15;;
23155;SDS011;11746;50.876;4.246;2023-08-01T07:21:35;13.75;;;4.53;;
23155;SDS011;11746;50.876;4.246;2023-08-01T07:24:01;13.80;;;4.65;;
23155;SDS011;11746;50.876;4.246;2023-08-01T07:26:27;9.90;;;3.90;;
23155;SDS011;11746;50.876;4.246;2023-08-01T07:28:54;12.10;;;4.97;;
23155;SDS011;11746;50.876;4.246;2023-08-01T07:31:20;13.43;;;4.53;;
23155;SDS011;11746;50.876;4.246;2023-08-01T07:33:46;10.60;;;4.65;;
23155;SDS011;11746;50.876;4.246;2023-08-01T07:36:12;10.32;;;4.68;;
23155;SDS011;11746;50.876;4.246;2023-08-01T07:38:38;12.77;;;4.75;;
23155;SDS011;11746;50.876;4.246;2023-08-01T07:41:04;9.70;;;4.20;;
23155;SDS011;11746;50.876;4.246;2023-08-01T07:43:32;12.90;;;4.40;;
23155;SDS011;11746;50.876;4.246;2023-08-01T07:45:58;16.75;;;5.22;;
23155;SDS011;11746;50.876;4.246;2023-08-01T07:48:24;10.23;;;4.95;;
23155;SDS011;11746;50.876;4.246;2023-08-01T07:50:51;11.43;;;4.68;;
23155;SDS011;11746;50.876;4.246;2023-08-01T07:53:17;9.95;;;4.28;;
23155;SDS011;11746;50.876;4.246;2023-08-01T07:55:43;12.38;;;4.75;;
23155;SDS011;11746;50.876;4.246;2023-08-01T07:58:09;9.10;;;4.03;;
23155;SDS011;11746;50.876;4.246;2023-08-01T08:00:35;10.55;;;4.30;;
23155;SDS011;11746;50.876;4.246;2023-08-01T08:03:01;12.70;;;3.88;;
23155;SDS011;11746;50.876;4.246;2023-08-01T08:05:27;9.45;;;3.80;;
23155;SDS011;11746;50.876;4.246;2023-08-01T08:07:53;10.95;;;3.70;;
23155;SDS011;11746;50.876;4.246;2023-08-01T08:10:19;9.18;;;3.38;;
23155;SDS011;11746;50.876;4.246;2023-08-01T08:12:45;14.57;;;4.10;;
23155;SDS011;11746;50.876;4.246;2023-08-01T08:15:11;10.85;;;3.67;;
23155;SDS011;11746;50.876;4.246;2023-08-01T08:17:38;7.45;;;3.28;;
23155;SDS011;11746;50.876;4.246;2023-08-01T08:20:04;10.90;;;3.58;;
23155;SDS011;11746;50.876;4.246;2023-08-01T08:22:31;8.70;;;4.10;;
23155;SDS011;11746;50.876;4.246;2023-08-01T08:24:57;11.23;;;3.63;;
23155;SDS011;11746;50.876;4.246;2023-08-01T08:27:23;8.57;;;2.72;;
23155;SDS011;11746;50.876;4.246;2023-08-01T08:29:49;11.35;;;2.88;;
23155;SDS011;11746;50.876;4.246;2023-08-01T08:32:15;10.32;;;3.13;;
23155;SDS011;11746;50.876;4.246;2023-08-01T08:34:41;9.40;;;2.88;;
23155;SDS011;11746;50.876;4.246;2023-08-01T08:37:07;7.28;;;2.92;;
23155;SDS011;11746;50.876;4.246;2023-08-01T08:39:33;6.70;;;2.60;;
23155;SDS011;11746;50.876;4.246;2023-08-01T08:41:59;7.18;;;2.50;;
23155;SDS011;11746;50.876;4.246;2023-08-01T08:44:25;5.53;;;2.30;;
23155;SDS011;11746;50.876;4.246;2023-08-01T08:46:55;6.70;;;2.40;;
23155;SDS011;11746;50.876;4.246;2023-08-01T08:49:26;10.55;;;2.60;;
23155;SDS011;11746;50.876;4.246;2023-08-01T08:51:52;9.43;;;2.70;;
23155;SDS011;11746;50.876;4.246;2023-08-01T08:54:19;6.93;;;2.20;;
23155;SDS011;11746;50.876;4.246;2023-08-01T08:56:45;6.38;;;2.15;;
23155;SDS011;11746;50.876;4.246;2023-08-01T08:59:12;6.70;;;2.10;;
23155;SDS011;11746;50.876;4.246;2023-08-01T09:01:38;11.73;;;2.63;;
23155;SDS011;11746;50.876;4.246;2023-08-01T09:04:05;4.90;;;1.98;;
23155;SDS011;11746;50.876;4.246;2023-08-01T09:06:32;4.82;;;2.10;;
23155;SDS011;11746;50.876;4.246;2023-08-01T09:09:09;6.45;;;2.30;;
23155;SDS011;11746;50.876;4.246;2023-08-01T09:11:46;9.85;;;2.58;;
23155;SDS011;11746;50.876;4.246;2023-08-01T09:14:12;5.82;;;2.20;;
23155;SDS011;11746;50.876;4.246;2023-08-01T09:16:41;6.40;;;2.33;;
23155;SDS011;11746;50.876;4.246;2023-08-01T09:19:08;7.85;;;2.10;;
23155;SDS011;11746;50.876;4.246;2023-08-01T09:21:35;8.77;;;2.45;;
23155;SDS011;11746;50.876;4.246;2023-08-01T09:24:08;8.02;;;2.58;;
23155;SDS011;11746;50.876;4.246;2023-08-01T09:26:37;6.65;;;1.90;;
23155;SDS011;11746;50.876;4.246;2023-08-01T09:29:04;6.93;;;2.22;;
23155;SDS011;11746;50.876;4.246;2023-08-01T09:31:34;5.53;;;2.08;;
23155;SDS011;11746;50.876;4.246;2023-08-01T09:34:03;6.22;;;1.67;;
23155;SDS011;11746;50.876;4.246;2023-08-01T09:36:31;8.93;;;1.80;;
23155;SDS011;11746;50.876;4.246;2023-08-01T09:39:00;4.60;;;1.77;;
23155;SDS011;11746;50.876;4.246;2023-08-01T09:41:31;4.88;;;1.77;;
23155;SDS011;11746;50.876;4.246;2023-08-01T09:43:57;7.22;;;2.15;;
23155;SDS011;11746;50.876;4.246;2023-08-01T09:46:23;8.30;;;2.40;;
23155;SDS011;11746;50.876;4.246;2023-08-01T09:48:50;7.82;;;2.10;;
23155;SDS011;11746;50.876;4.246;2023-08-01T09:51:16;6.22;;;2.08;;
23155;SDS011;11746;50.876;4.246;2023-08-01T09:53:56;5.28;;;2.20;;
23155;SDS011;11746;50.876;4.246;2023-08-01T09:56:23;4.97;;;2.30;;
23155;SDS011;11746;50.876;4.246;2023-08-01T09:58:51;6.75;;;2.20;;
23155;SDS011;11746;50.876;4.246;2023-08-01T10:01:18;6.55;;;2.03;;
23155;SDS011;11746;50.876;4.246;2023-08-01T10:03:47;7.25;;;2.10;;
23155;SDS011;11746;50.876;4.246;2023-08-01T10:06:18;6.22;;;2.15;;
23155;SDS011;11746;50.876;4.246;2023-08-01T10:08:49;5.50;;;2.00;;
23155;SDS011;11746;50.876;4.246;2023-08-01T10:11:19;5.53;;;1.75;;
23155;SDS011;11746;50.876;4.246;2023-08-01T10:13:46;5.82;;;2.10;;
23155;SDS011;11746;50.876;4.246;2023-08-01T10:16:13;7.95;;;2.00;;
23155;SDS011;11746;50.876;4.246;2023-08-01T10:18:39;6.47;;;2.08;;
23155;SDS011;11746;50.876;4.246;2023-08-01T10:21:06;8.85;;;2.00;;
23155;SDS011;11746;50.876;4.246;2023-08-01T10:23:34;5.05;;;1.63;;
23155;SDS011;11746;50.876;4.246;2023-08-01T10:26:01;6.15;;;1.65;;
23155;SDS011;11746;50.876;4.246;2023-08-01T10:28:33;6.70;;;1.75;;
23155;SDS011;11746;50.876;4.246;2023-08-01T10:31:13;4.75;;;1.58;;
23155;SDS011;11746;50.876;4.246;2023-08-01T10:33:42;5.10;;;1.50;;
23155;SDS011;11746;50.876;4.246;2023-08-01T10:36:19;6.32;;;1.58;;
23155;SDS011;11746;50.876;4.246;2023-08-01T10:38:55;6.43;;;1.45;;
23155;SDS011;11746;50.876;4.246;2023-08-01T10:44:12;4.78;;;1.30;;
23155;SDS011;11746;50.876;4.246;2023-08-01T10:49:12;6.60;;;1.50;;
23155;SDS011;11746;50.876;4.246;2023-08-01T10:51:38;5.05;;;1.88;;
23155;SDS011;11746;50.876;4.246;2023-08-01T10:54:04;5.32;;;1.55;;
23155;SDS011;11746;50.876;4.246;2023-08-01T10:56:29;6.00;;;1.50;;
23155;SDS011;11746;50.876;4.246;2023-08-01T10:58:56;5.10;;;1.50;;
23155;SDS011;11746;50.876;4.246;2023-08-01T11:01:23;4.07;;;1.50;;
23155;SDS011;11746;50.876;4.246;2023-08-01T11:03:53;6.18;;;1.38;;
23155;SDS011;11746;50.876;4.246;2023-08-01T11:06:19;4.47;;;1.30;;
23155;SDS011;11746;50.876;4.246;2023-08-01T11:08:45;6.93;;;1.65;;
23155;SDS011;11746;50.876;4.246;2023-08-01T11:11:11;7.72;;;1.63;;
23155;SDS011;11746;50.876;4.246;2023-08-01T11:13:38;6.30;;;1.63;;
23155;SDS011;11746;50.876;4.246;2023-08-01T11:16:04;6.40;;;1.40;;
23155;SDS011;11746;50.876;4.246;2023-08-01T11:18:43;6.63;;;1.70;;
23155;SDS011;11746;50.876;4.246;2023-08-01T11:21:09;4.32;;;1.80;;
23155;SDS011;11746;50.876;4.246;2023-08-01T11:23:36;5.65;;;1.40;;
23155;SDS011;11746;50.876;4.246;2023-08-01T11:26:10;5.35;;;1.70;;
23155;SDS011;11746;50.876;4.246;2023-08-01T11:28:36;4.95;;;1.42;;
23155;SDS011;11746;50.876;4.246;2023-08-01T11:31:12;7.55;;;1.50;;
23155;SDS011;11746;50.876;4.246;2023-08-01T11:33:38;6.07;;;1.73;;
23155;SDS011;11746;50.876;4.246;2023-08-01T11:36:04;5.72;;;1.33;;
23155;SDS011;11746;50.876;4.246;2023-08-01T11:38:31;5.78;;;1.48;;
23155;SDS011;11746;50.876;4.246;2023-08-01T11:41:00;5.68;;;1.42;;
23155;SDS011;11746;50.876;4.246;2023-08-01T11:43:37;4.63;;;1.80;;
23155;SDS011;11746;50.876;4.246;2023-08-01T11:46:06;5.03;;;1.38;;
23155;SDS011;11746;50.876;4.246;2023-08-01T11:48:32;8.68;;;1.55;;
23155;SDS011;11746;50.876;4.246;2023-08-01T11:50:58;5.78;;;1.48;;
23155;SDS011;11746;50.876;4.246;2023-08-01T11:53:25;4.07;;;1.40;;
23155;SDS011;11746;50.876;4.246;2023-08-01T11:55:52;5.10;;;1.67;;
23155;SDS011;11746;50.876;4.246;2023-08-01T11:58:36;5.20;;;1.25;;
23155;SDS011;11746;50.876;4.246;2023-08-01T12:01:10;5.65;;;1.80;;
23155;SDS011;11746;50.876;4.246;2023-08-01T12:03:44;7.03;;;1.23;;
23155;SDS011;11746;50.876;4.246;2023-08-01T12:06:11;4.70;;;1.35;;
23155;SDS011;11746;50.876;4.246;2023-08-01T12:08:39;4.20;;;1.35;;
23155;SDS011;11746;50.876;4.246;2023-08-01T12:11:16;7.57;;;1.30;;
23155;SDS011;11746;50.876;4.246;2023-08-01T12:14:02;2.17;;;0.80;;
23155;SDS011;11746;50.876;4.246;2023-08-01T12:16:32;5.80;;;1.10;;
23155;SDS011;11746;50.876;4.246;2023-08-01T12:18:58;4.25;;;1.40;;
23155;SDS011;11746;50.876;4.246;2023-08-01T12:21:24;2.67;;;0.95;;
23155;SDS011;11746;50.876;4.246;2023-08-01T12:23:50;4.20;;;1.33;;
23155;SDS011;11746;50.876;4.246;2023-08-01T12:26:16;4.40;;;1.27;;
23155;SDS011;11746;50.876;4.246;2023-08-01T12:28:42;3.65;;;1.50;;
23155;SDS011;11746;50.876;4.246;2023-08-01T12:31:08;4.85;;;1.30;;
23155;SDS011;11746;50.876;4.246;2023-08-01T12:33:34;5.55;;;1.52;;
23155;SDS011;11746;50.876;4.246;2023-08-01T12:36:00;5.05;;;1.00;;
23155;SDS011;11746;50.876;4.246;2023-08-01T12:38:26;5.70;;;1.00;;
23155;SDS011;11746;50.876;4.246;2023-08-01T12:40:52;5.10;;;1.15;;
23155;SDS011;11746;50.876;4.246;2023-08-01T12:43:18;3.90;;;1.00;;
23155;SDS011;11746;50.876;4.246;2023-08-01T12:45:44;3.72;;;0.90;;
23155;SDS011;11746;50.876;4.246;2023-08-01T12:48:11;3.17;;;1.00;;
23155;SDS011;11746;50.876;4.246;2023-08-01T12:50:37;3.60;;;1.10;;
23155;SDS011;11746;50.876;4.246;2023-08-01T12:53:02;2.65;;;1.13;;
23155;SDS011;11746;50.876;4.246;2023-08-01T12:55:28;4.75;;;1.02;;
23155;SDS011;11746;50.876;4.246;2023-08-01T12:57:54;3.97;;;1.05;;
23155;SDS011;11746;50.876;4.246;2023-08-01T13:00:20;4.13;;;0.98;;
23155;SDS011;11746;50.876;4.246;2023-08-01T13:02:46;3.70;;;1.13;;
23155;SDS011;11746;50.876;4.246;2023-08-01T13:05:14;3.85;;;1.10;;
23155;SDS011;11746;50.876;4.246;2023-08-01T13:07:40;4.45;;;1.27;;
23155;SDS011;11746;50.876;4.246;2023-08-01T13:10:06;7.80;;;1.75;;
23155;SDS011;11746;50.876;4.246;2023-08-01T13:12:32;3.75;;;0.95;;
23155;SDS011;11746;50.876;4.246;2023-08-01T13:14:58;3.33;;;0.90;;
23155;SDS011;11746;50.876;4.246;2023-08-01T13:17:24;6.53;;;1.30;;
23155;SDS011;11746;50.876;4.246;2023-08-01T13:19:50;4.80;;;1.27;;
23155;SDS011;11746;50.876;4.246;2023-08-01T13:22:16;6.65;;;1.60;;
23155;SDS011;11746;50.876;4.246;2023-08-01T13:24:42;4.72;;;1.20;;
23155;SDS011;11746;50.876;4.246;2023-08-01T13:27:07;3.13;;;1.20;;
23155;SDS011;11746;50.876;4.246;2023-08-01T13:29:34;4.95;;;1.30;;
23155;SDS011;11746;50.876;4.246;2023-08-01T13:32:00;7.53;;;1.80;;
23155;SDS011;11746;50.876;4.246;2023-08-01T13:34:26;5.95;;;1.40;;
23155;SDS011;11746;50.876;4.246;2023-08-01T13:36:52;3.78;;;1.20;;
23155;SDS011;11746;50.876;4.246;2023-08-01T13:39:19;9.77;;;1.55;;
23155;SDS011;11746;50.876;4.246;2023-08-01T13:41:44;7.57;;;1.40;;
23155;SDS011;11746;50.876;4.246;2023-08-01T13:44:10;5.30;;;1.27;;
23155;SDS011;11746;50.876;4.246;2023-08-01T13:46:36;5.45;;;1.48;;
23155;SDS011;11746;50.876;4.246;2023-08-01T13:49:02;4.03;;;1.25;;
23155;SDS011;11746;50.876;4.246;2023-08-01T13:51:30;3.40;;;1.08;;
23155;SDS011;11746;50.876;4.246;2023-08-01T13:53:57;4.03;;;1.20;;
23155;SDS011;11746;50.876;4.246;2023-08-01T13:56:24;5.20;;;1.63;;
23155;SDS011;11746;50.876;4.246;2023-08-01T13:58:50;5.75;;;1.33;;
23155;SDS011;11746;50.876;4.246;2023-08-01T14:01:17;5.05;;;1.42;;
23155;SDS011;11746;50.876;4.246;2023-08-01T14:03:46;5.60;;;1.23;;
23155;SDS011;11746;50.876;4.246;2023-08-01T14:06:12;8.13;;;1.33;;
23155;SDS011;11746;50.876;4.246;2023-08-01T14:08:40;6.85;;;1.17;;
23155;SDS011;11746;50.876;4.246;2023-08-01T14:11:08;4.50;;;0.90;;
23155;SDS011;11746;50.876;4.246;2023-08-01T14:13:35;4.78;;;1.02;;
23155;SDS011;11746;50.876;4.246;2023-08-01T14:16:01;5.72;;;1.23;;
23155;SDS011;11746;50.876;4.246;2023-08-01T14:18:28;3.72;;;1.10;;
23155;SDS011;11746;50.876;4.246;2023-08-01T14:20:54;4.00;;;1.02;;
23155;SDS011;11746;50.876;4.246;2023-08-01T14:23:20;4.60;;;1.20;;
23155;SDS011;11746;50.876;4.246;2023-08-01T14:25:46;4.78;;;1.17;;
23155;SDS011;11746;50.876;4.246;2023-08-01T14:28:13;3.85;;;1.42;;
23155;SDS011;11746;50.876;4.246;2023-08-01T14:30:39;5.25;;;1.30;;
23155;SDS011;11746;50.876;4.246;2023-08-01T14:33:06;3.13;;;1.45;;
23155;SDS011;11746;50.876;4.246;2023-08-01T14:35:36;6.38;;;1.38;;
23155;SDS011;11746;50.876;4.246;2023-08-01T14:38:04;7.53;;;1.50;;
23155;SDS011;11746;50.876;4.246;2023-08-01T14:40:30;4.68;;;1.13;;
23155;SDS011;11746;50.876;4.246;2023-08-01T14:42:56;4.28;;;1.27;;
23155;SDS011;11746;50.876;4.246;2023-08-01T14:45:24;4.75;;;1.30;;
23155;SDS011;11746;50.876;4.246;2023-08-01T14:47:50;3.83;;;1.10;;